Time;durP1;ratioP1;P1;durP2;ratioP2;P2;SDS_P1;SDS_P2;PMS_P1;PMS_P2;Temp;Humidity;BMP_temperature;BMP_pressure;BME280_temperature;BME280_humidity;BME280_pressure;Samples;Min_cycle;Max_cycle;Signal;HPM_P1;HPM_P2
2021/09/20 00:00:07;;;;;;;;;;;;;;;10.31;89.45;98005.98;1660493;85;20150;-83
2021/09/20 00:02:35;;;;;;;;;;;;;;;10.36;89.30;98005.17;1655820;85;20155;-83
2021/09/20 00:05:04;;;;;;;;;;;;;;;10.37;90.04;98003.53;1655614;85;21025;-83
2021/09/20 00:07:31;;;;;;;;;;;;;;;10.38;89.89;98005.70;1655727;85;20142;-84
2021/09/20 00:09:58;;;;;;;;;;;;;;;10.37;90.48;98005.44;1655657;85;20163;-83
2021/09/20 00:12:25;;;;;;;;;;;;;;;10.34;90.44;98005.45;1656038;85;20499;-79
2021/09/20 00:14:51;;;;;;;;;;;;;;;10.33;90.04;98006.52;1656007;85;20140;-79
2021/09/20 00:17:18;;;;;;;;;;;;;;;10.27;89.24;98010.36;1655475;85;21052;-79
2021/09/20 00:19:45;;;;;;;;;;;;;;;10.18;89.53;98003.32;1655563;85;20158;-84
2021/09/20 00:22:12;;;;;;;;;;;;;;;10.13;91.12;98007.39;1655455;85;20218;-79
2021/09/20 00:24:39;;;;;;;;;;;;;;;10.08;92.27;97998.47;1655617;85;20150;-79
2021/09/20 00:27:07;;;;;;;;;;;;;;;10.10;91.43;97999.02;1655532;85;20151;-79
2021/09/20 00:29:34;;;;;;;;;;;;;;;10.07;91.05;97996.85;1655688;85;21611;-79
2021/09/20 00:32:01;;;;;;;;;;;;;;;10.09;91.91;98002.28;1655500;85;20170;-79
2021/09/20 00:34:28;;;;;;;;;;;;;;;10.08;91.16;97995.76;1655662;85;20150;-84
2021/09/20 00:36:55;;;;;;;;;;;;;;;10.04;90.80;97996.06;1655576;85;20126;-83
2021/09/20 00:39:22;;;;;;;;;;;;;;;10.04;90.58;98004.98;1655611;85;20142;-79
2021/09/20 00:41:48;;;;;;;;;;;;;;;10.05;90.31;98002.55;1655731;86;21174;-84
2021/09/20 00:44:15;;;;;;;;;;;;;;;10.04;90.82;98008.24;1628001;86;21508;-79
2021/09/20 00:46:42;;;;;;;;;;;;;;;10.08;91.24;98004.72;1632701;87;20493;-79
2021/09/20 00:49:09;;;;;;;;;;;;;;;10.11;91.25;97997.39;1632660;88;20418;-84
2021/09/20 00:51:36;;;;;;;;;;;;;;;10.20;91.04;97994.91;1647284;86;20405;-79
2021/09/20 00:54:03;;;;;;;;;;;;;;;10.31;91.04;97994.34;1656082;85;21558;-79
2021/09/20 00:56:29;;;;;;;;;;;;;;;10.37;90.37;97990.53;1655543;85;20454;-84
2021/09/20 00:58:56;;;;;;;;;;;;;;;10.38;90.33;97992.15;1655698;85;20449;-79
2021/09/20 01:01:24;;;;;;;;;;;;;;;10.34;90.10;97997.84;1622277;86;20450;-79
2021/09/20 01:03:51;;;;;;;;;;;;;;;10.28;92.03;97988.14;1633239;87;20217;-84
2021/09/20 01:06:18;;;;;;;;;;;;;;;10.27;90.45;97988.69;1643435;86;21076;-84
2021/09/20 01:08:45;;;;;;;;;;;;;;;10.25;90.76;97985.42;1655662;85;20146;-79
2021/09/20 01:11:11;;;;;;;;;;;;;;;10.24;90.03;97987.06;1655675;85;20233;-79
2021/09/20 01:13:38;;;;;;;;;;;;;;;10.16;90.23;97990.58;1655752;85;20146;-84
2021/09/20 01:16:05;;;;;;;;;;;;;;;10.24;90.44;97985.71;1655778;85;20154;-79
2021/09/20 01:18:32;;;;;;;;;;;;;;;10.25;91.12;97985.97;1655757;85;21028;-84
2021/09/20 01:20:59;;;;;;;;;;;;;;;10.30;90.50;97980.55;1655407;85;20143;-79
2021/09/20 01:23:26;;;;;;;;;;;;;;;10.33;90.22;97980.78;1655995;85;20421;-79
2021/09/20 01:25:53;;;;;;;;;;;;;;;10.41;90.37;97985.62;1655469;85;20464;-84
2021/09/20 01:28:19;;;;;;;;;;;;;;;10.51;90.47;97984.78;1655857;85;20142;-79
2021/09/20 01:30:46;;;;;;;;;;;;;;;10.59;90.22;97984.16;1655467;85;20994;-79
2021/09/20 01:33:13;;;;;;;;;;;;;;;10.59;89.54;97987.41;1656128;85;20170;-84
2021/09/20 01:35:40;;;;;;;;;;;;;;;10.59;89.76;97982.00;1655466;85;20158;-79
2021/09/20 01:38:07;;;;;;;;;;;;;;;10.59;89.57;97982.80;1655740;85;20418;-84
2021/09/20 01:40:33;;;;;;;;;;;;;;;10.56;88.73;97986.63;1655475;85;20223;-79
2021/09/20 01:43:01;;;;;;;;;;;;;;;10.42;88.99;97991.84;1655712;85;21784;-84
2021/09/20 01:45:28;;;;;;;;;;;;;;;10.42;89.29;97990.48;1655441;85;20134;-84
2021/09/20 01:47:55;;;;;;;;;;;;;;;10.44;89.13;97994.56;1655751;85;20150;-79
2021/09/20 01:50:22;;;;;;;;;;;;;;;10.35;88.77;97992.72;1655620;85;20611;-84
2021/09/20 01:52:49;;;;;;;;;;;;;;;10.32;89.75;97997.31;1668242;84;20406;-79
2021/09/20 01:55:16;;;;;;;;;;;;;;;10.32;90.96;97994.61;1668125;84;21013;-83
2021/09/20 01:57:43;;;;;;;;;;;;;;;10.32;90.74;97991.91;1660980;84;20209;-83
2021/09/20 02:00:11;;;;;;;;;;;;;;;10.31;90.36;97983.52;1624860;87;20167;-84
2021/09/20 02:02:39;;;;;;;;;;;;;;;10.33;90.38;97992.16;1654911;86;20596;-79
2021/09/20 02:05:06;;;;;;;;;;;;;;;10.38;90.06;97994.31;1655591;85;20087;-79
2021/09/20 02:07:33;;;;;;;;;;;;;;;10.35;89.75;97992.72;1655577;85;20907;-83
2021/09/20 02:10:00;;;;;;;;;;;;;;;10.35;89.88;97984.05;1655504;85;20142;-79
2021/09/20 02:12:27;;;;;;;;;;;;;;;10.38;89.85;97982.67;1655452;85;20146;-82
2021/09/20 02:14:54;;;;;;;;;;;;;;;10.36;89.61;97987.56;1655520;85;20167;-84
2021/09/20 02:17:21;;;;;;;;;;;;;;;10.24;89.91;97993.29;1655533;85;20154;-84
2021/09/20 02:19:48;;;;;;;;;;;;;;;10.20;89.97;97996.27;1655813;85;21007;-79
2021/09/20 02:22:14;;;;;;;;;;;;;;;10.23;89.90;97996.28;1625405;86;20414;-79
2021/09/20 02:24:43;;;;;;;;;;;;;;;10.25;89.96;97997.61;1632569;87;20410;-84
2021/09/20 02:27:10;;;;;;;;;;;;;;;10.25;89.86;97996.26;1632700;86;20098;-79
2021/09/20 02:29:37;;;;;;;;;;;;;;;10.25;89.79;97988.68;1651930;86;20430;-79
2021/09/20 02:32:05;;;;;;;;;;;;;;;10.26;89.99;97989.78;1655502;85;21715;-79
2021/09/20 02:34:32;;;;;;;;;;;;;;;10.24;89.76;97984.36;1655761;85;20245;-84
2021/09/20 02:36:59;;;;;;;;;;;;;;;10.21;90.52;97982.19;1655817;85;20433;-79
2021/09/20 02:39:25;;;;;;;;;;;;;;;10.21;89.89;97982.19;1624815;86;20418;-79
2021/09/20 02:41:52;;;;;;;;;;;;;;;10.13;90.20;97971.38;1627194;87;20234;-79
2021/09/20 02:44:19;;;;;;;;;;;;;;;10.11;90.44;97971.67;1600137;89;21068;-84
2021/09/20 02:46:46;;;;;;;;;;;;;;;10.07;90.38;97973.30;1627354;87;20147;-79
2021/09/20 02:49:13;;;;;;;;;;;;;;;10.06;90.32;97970.87;1608659;89;20158;-84
2021/09/20 02:51:39;;;;;;;;;;;;;;;10.01;90.59;97969.01;1640955;86;21475;-79
2021/09/20 02:54:06;;;;;;;;;;;;;;;9.95;90.72;97970.66;1641378;86;20138;-79
2021/09/20 02:56:33;;;;;;;;;;;;;;;9.96;90.35;97974.43;1641111;86;20954;-79
2021/09/20 02:59:00;;;;;;;;;;;;;;;9.85;91.02;97976.91;1641435;85;20149;-83
2021/09/20 03:01:27;;;;;;;;;;;;;;;9.90;91.10;97976.88;1641349;86;20138;-83
2021/09/20 03:03:53;;;;;;;;;;;;;;;9.83;91.41;97973.68;1641460;86;20146;-79
2021/09/20 03:06:20;;;;;;;;;;;;;;;9.87;91.48;97976.09;1641391;86;20158;-83
2021/09/20 03:08:47;;;;;;;;;;;;;;;9.82;91.73;97974.73;1641496;86;21012;-83
2021/09/20 03:11:14;;;;;;;;;;;;;;;9.86;91.69;97975.83;1641415;85;20158;-79
2021/09/20 03:13:41;;;;;;;;;;;;;;;9.92;91.20;97976.08;1641114;86;20138;-84
2021/09/20 03:16:07;;;;;;;;;;;;;;;9.98;91.19;97974.15;1641377;86;20250;-79
2021/09/20 03:18:34;;;;;;;;;;;;;;;10.02;90.85;97976.58;1641429;85;20154;-84
2021/09/20 03:21:01;;;;;;;;;;;;;;;10.04;90.55;97976.56;1641391;85;20922;-79
2021/09/20 03:23:28;;;;;;;;;;;;;;;9.98;90.61;97982.27;1641366;85;20138;-79
2021/09/20 03:25:55;;;;;;;;;;;;;;;9.95;90.86;97980.94;1641297;86;20441;-83
2021/09/20 03:28:22;;;;;;;;;;;;;;;10.03;90.48;97989.03;1641386;85;20480;-79
2021/09/20 03:30:48;;;;;;;;;;;;;;;10.01;90.80;97986.61;1641043;86;21273;-79
2021/09/20 03:33:15;;;;;;;;;;;;;;;10.02;90.61;97983.35;1641131;86;21753;-79
2021/09/20 03:35:42;;;;;;;;;;;;;;;9.99;90.64;97987.95;1641311;86;20196;-79
2021/09/20 03:38:09;;;;;;;;;;;;;;;10.02;90.45;97980.64;1641252;86;20146;-83
2021/09/20 03:40:36;;;;;;;;;;;;;;;10.00;90.20;97984.98;1639625;86;20159;-83
2021/09/20 03:43:03;;;;;;;;;;;;;;;10.01;90.17;97989.31;1636728;86;20149;-79
2021/09/20 03:45:30;;;;;;;;;;;;;;;9.95;88.31;97984.99;1630908;87;21737;-79
2021/09/20 03:47:56;;;;;;;;;;;;;;;9.96;89.26;97997.44;1653086;86;20151;-84
2021/09/20 03:50:23;;;;;;;;;;;;;;;9.99;89.13;97996.06;1651504;86;20178;-83
2021/09/20 03:52:50;;;;;;;;;;;;;;;10.07;89.42;97997.66;1636838;87;20188;-83
2021/09/20 03:55:17;;;;;;;;;;;;;;;10.16;89.36;98006.02;1636788;86;20166;-79
2021/09/20 03:57:44;;;;;;;;;;;;;;;10.16;89.08;98003.31;1637044;86;21043;-83
2021/09/20 04:00:12;;;;;;;;;;;;;;;10.25;89.24;98004.38;1636839;86;20413;-84
2021/09/20 04:02:39;;;;;;;;;;;;;;;10.28;88.96;98003.84;1636801;86;20138;-83
2021/09/20 04:05:06;;;;;;;;;;;;;;;10.30;88.93;98005.73;1636909;86;20162;-83
2021/09/20 04:07:33;;;;;;;;;;;;;;;10.37;89.17;98002.72;1641661;86;20146;-84
2021/09/20 04:10:01;;;;;;;;;;;;;;;10.38;88.86;98004.34;1633309;87;21022;-83
2021/09/20 04:12:28;;;;;;;;;;;;;;;10.29;88.76;98004.66;1651100;86;20150;-79
2021/09/20 04:14:55;;;;;;;;;;;;;;;10.17;88.91;98003.60;1641257;86;20166;-79
2021/09/20 04:17:22;;;;;;;;;;;;;;;10.12;89.24;98006.32;1641231;86;20504;-83
2021/09/20 04:19:48;;;;;;;;;;;;;;;10.14;89.46;98011.72;1636882;87;20426;-79
2021/09/20 04:22:15;;;;;;;;;;;;;;;10.13;89.19;98003.87;1636862;86;21644;-84
2021/09/20 04:24:42;;;;;;;;;;;;;;;10.04;88.93;98010.41;1636767;87;20238;-79
2021/09/20 04:27:09;;;;;;;;;;;;;;;10.05;88.52;98009.86;1636843;86;20138;-83
2021/09/20 04:29:35;;;;;;;;;;;;;;;10.05;88.64;98018.79;1641370;86;20137;-84
2021/09/20 04:32:03;;;;;;;;;;;;;;;10.06;88.82;98011.48;1641071;86;20188;-84
2021/09/20 04:34:30;;;;;;;;;;;;;;;10.13;88.87;98017.41;1641236;86;21748;-79
2021/09/20 04:36:57;;;;;;;;;;;;;;;10.21;88.93;98014.13;1637182;86;20137;-83
2021/09/20 04:39:24;;;;;;;;;;;;;;;10.20;87.61;98016.58;1636857;87;20162;-79
2021/09/20 04:41:51;;;;;;;;;;;;;;;10.10;87.65;98018.78;1636680;86;20163;-83
2021/09/20 04:44:18;;;;;;;;;;;;;;;10.11;87.83;98020.95;1636968;87;20094;-83
2021/09/20 04:46:44;;;;;;;;;;;;;;;10.07;88.67;98020.67;1619813;87;20956;-79
2021/09/20 04:49:11;;;;;;;;;;;;;;;10.07;88.73;98025.28;1644048;87;20146;-83
2021/09/20 04:51:38;;;;;;;;;;;;;;;10.06;88.99;98028.53;1641343;86;20296;-83
2021/09/20 04:54:05;;;;;;;;;;;;;;;10.07;89.40;98033.40;1618378;87;20135;-83
2021/09/20 04:56:32;;;;;;;;;;;;;;;10.05;89.10;98030.16;1645613;86;20213;-81
2021/09/20 04:58:58;;;;;;;;;;;;;;;9.96;89.03;98033.98;1640137;86;21084;-83
2021/09/20 05:01:25;;;;;;;;;;;;;;;10.02;89.43;98038.30;1636946;86;20201;-84
2021/09/20 05:03:52;;;;;;;;;;;;;;;10.07;89.28;98037.46;1637153;86;20213;-79
2021/09/20 05:06:19;;;;;;;;;;;;;;;10.12;89.02;98035.56;1641333;86;20204;-79
2021/09/20 05:08:46;;;;;;;;;;;;;;;10.15;88.68;98041.77;1641095;86;20430;-79
2021/09/20 05:11:13;;;;;;;;;;;;;;;10.12;88.87;98045.03;1641241;86;21562;-80
2021/09/20 05:13:39;;;;;;;;;;;;;;;10.11;88.70;98046.67;1640969;86;20163;-82
2021/09/20 05:16:06;;;;;;;;;;;;;;;10.10;88.14;98053.17;1636923;86;20217;-80
2021/09/20 05:18:33;;;;;;;;;;;;;;;10.11;88.54;98054.25;1636627;86;20437;-80
2021/09/20 05:21:00;;;;;;;;;;;;;;;10.20;88.48;98049.07;1641389;86;20219;-83
2021/09/20 05:23:27;;;;;;;;;;;;;;;10.10;88.49;98060.75;1641210;86;20975;-80
2021/09/20 05:25:54;;;;;;;;;;;;;;;9.97;88.73;98062.67;1641019;86;20130;-80
2021/09/20 05:28:21;;;;;;;;;;;;;;;10.05;88.65;98062.66;1636895;87;20142;-82
2021/09/20 05:30:47;;;;;;;;;;;;;;;10.04;88.25;98063.74;1636753;86;20162;-80
2021/09/20 05:33:16;;;;;;;;;;;;;;;10.01;87.86;98070.52;1619943;87;20170;-80
2021/09/20 05:35:43;;;;;;;;;;;;;;;10.00;88.00;98071.61;1645598;86;21003;-80
2021/09/20 05:38:12;;;;;;;;;;;;;;;10.03;87.73;98068.89;1626879;87;20163;-82
2021/09/20 05:40:39;;;;;;;;;;;;;;;10.05;88.42;98067.52;1637008;86;20154;-82
2021/09/20 05:43:06;;;;;;;;;;;;;;;10.13;87.87;98068.31;1640455;86;21956;-82
2021/09/20 05:45:33;;;;;;;;;;;;;;;10.17;87.73;98069.95;1641366;86;20421;-80
2021/09/20 05:48:00;;;;;;;;;;;;;;;10.24;87.83;98066.41;1641385;86;21611;-80
2021/09/20 05:50:27;;;;;;;;;;;;;;;10.16;86.87;98062.88;1641056;85;20138;-80
2021/09/20 05:52:54;;;;;;;;;;;;;;;10.23;86.80;98066.14;1641389;85;20183;-82
2021/09/20 05:55:22;;;;;;;;;;;;;;;10.20;86.69;98066.67;1641763;85;20216;-82
2021/09/20 05:57:49;;;;;;;;;;;;;;;10.17;86.36;98063.98;1641891;86;20145;-82
2021/09/20 06:00:16;;;;;;;;;;;;;;;10.18;86.70;98062.89;1641367;86;21016;-80
2021/09/20 06:02:43;;;;;;;;;;;;;;;10.18;87.03;98065.60;1621136;86;20173;-80
2021/09/20 06:05:12;;;;;;;;;;;;;;;10.20;87.02;98064.52;1621400;87;20149;-79
2021/09/20 06:07:39;;;;;;;;;;;;;;;10.24;87.23;98068.30;1621489;86;20167;-79
2021/09/20 06:10:06;;;;;;;;;;;;;;;10.27;87.26;98069.12;1641772;86;20101;-82
2021/09/20 06:12:33;;;;;;;;;;;;;;;10.25;86.99;98066.67;1619452;87;21017;-82
2021/09/20 06:15:00;;;;;;;;;;;;;;;10.34;87.21;98067.75;1641281;86;20138;-80
2021/09/20 06:17:26;;;;;;;;;;;;;;;10.45;87.33;98072.03;1641443;86;20142;-80
2021/09/20 06:19:53;;;;;;;;;;;;;;;10.57;87.46;98070.34;1641388;85;20440;-82
2021/09/20 06:22:20;;;;;;;;;;;;;;;10.63;87.09;98077.91;1641496;86;20417;-82
2021/09/20 06:24:47;;;;;;;;;;;;;;;10.68;87.15;98073.29;1641469;86;21755;-80
2021/09/20 06:27:14;;;;;;;;;;;;;;;10.67;86.48;98069.48;1641244;85;20113;-82
2021/09/20 06:29:41;;;;;;;;;;;;;;;10.63;86.18;98073.30;1641453;86;20162;-82
2021/09/20 06:32:08;;;;;;;;;;;;;;;10.65;86.37;98072.47;1621389;87;20505;-80
2021/09/20 06:34:34;;;;;;;;;;;;;;;10.73;86.27;98066.47;1641531;86;20154;-82
2021/09/20 06:37:01;;;;;;;;;;;;;;;10.79;86.53;98069.16;1641591;86;21643;-82
2021/09/20 06:39:28;;;;;;;;;;;;;;;10.85;86.84;98067.51;1641336;86;20414;-82
2021/09/20 06:41:55;;;;;;;;;;;;;;;10.94;86.77;98067.18;1638679;86;20142;-80
2021/09/20 06:44:22;;;;;;;;;;;;;;;10.99;86.55;98073.91;1636759;86;20508;-79
2021/09/20 06:46:49;;;;;;;;;;;;;;;11.01;85.98;98069.55;1637086;87;20233;-82
2021/09/20 06:49:15;;;;;;;;;;;;;;;11.01;86.10;98071.72;1636662;86;21642;-80
2021/09/20 06:51:43;;;;;;;;;;;;;;;11.04;84.68;98073.63;1618769;88;20197;-80
2021/09/20 06:54:10;;;;;;;;;;;;;;;11.05;85.75;98079.31;1623125;87;20146;-83
2021/09/20 06:56:38;;;;;;;;;;;;;;;11.03;85.31;98081.50;1644143;86;20474;-79
2021/09/20 06:59:05;;;;;;;;;;;;;;;11.05;85.37;98079.31;1636565;86;20147;-83
2021/09/20 07:01:32;;;;;;;;;;;;;;;11.01;84.35;98083.92;1641136;86;21052;-80
2021/09/20 07:03:59;;;;;;;;;;;;;;;11.03;84.91;98087.73;1640947;86;20171;-81
2021/09/20 07:06:25;;;;;;;;;;;;;;;10.95;83.81;98091.03;1641298;87;20194;-82
2021/09/20 07:08:52;;;;;;;;;;;;;;;10.81;83.71;98092.18;1641145;86;20201;-83
2021/09/20 07:11:19;;;;;;;;;;;;;;;10.86;84.39;98090.00;1641788;86;20193;-82
2021/09/20 07:13:46;;;;;;;;;;;;;;;10.83;84.01;98095.41;1636545;86;20936;-83
2021/09/20 07:16:13;;;;;;;;;;;;;;;10.89;84.41;98090.78;1636790;86;20154;-82
2021/09/20 07:18:40;;;;;;;;;;;;;;;11.03;84.65;98091.80;1636645;86;20150;-80
2021/09/20 07:21:07;;;;;;;;;;;;;;;11.17;84.87;98093.31;1637013;86;20245;-82
2021/09/20 07:23:33;;;;;;;;;;;;;;;11.27;84.83;98095.41;1636952;86;20401;-83
2021/09/20 07:26:00;;;;;;;;;;;;;;;11.36;84.21;98099.69;1641295;87;21643;-80
2021/09/20 07:28:27;;;;;;;;;;;;;;;11.39;83.69;98103.77;1641057;86;20154;-82
2021/09/20 07:30:54;;;;;;;;;;;;;;;11.47;83.64;98097.18;1641292;86;20142;-82
2021/09/20 07:33:21;;;;;;;;;;;;;;;11.50;83.30;98099.31;1641249;86;20197;-82
2021/09/20 07:35:48;;;;;;;;;;;;;;;11.41;82.29;98101.02;1636631;87;20150;-80
2021/09/20 07:38:15;;;;;;;;;;;;;;;11.42;82.17;98100.47;1636713;86;20866;-80
2021/09/20 07:40:41;;;;;;;;;;;;;;;11.39;82.39;98107.28;1640935;86;20305;-82
2021/09/20 07:43:08;;;;;;;;;;;;;;;11.34;82.27;98106.50;1639685;86;20171;-80
2021/09/20 07:45:35;;;;;;;;;;;;;;;11.07;81.57;98106.95;1634665;86;20150;-81
2021/09/20 07:48:02;;;;;;;;;;;;;;;11.02;82.42;98109.13;1634943;87;20133;-83
2021/09/20 07:50:29;;;;;;;;;;;;;;;10.90;82.91;98107.31;1634588;86;21088;-81
2021/09/20 07:52:56;;;;;;;;;;;;;;;10.84;83.35;98111.94;1634775;87;20255;-80
2021/09/20 07:55:23;;;;;;;;;;;;;;;10.95;83.41;98108.11;1634708;86;20146;-81
2021/09/20 07:57:50;;;;;;;;;;;;;;;11.07;83.30;98111.83;1635012;86;20167;-81
2021/09/20 08:00:17;;;;;;;;;;;;;;;11.07;82.23;98119.16;1634962;86;20230;-83
2021/09/20 08:02:44;;;;;;;;;;;;;;;11.19;82.74;98114.19;1635138;86;21014;-80
2021/09/20 08:05:11;;;;;;;;;;;;;;;11.19;82.01;98117.70;1634415;86;20155;-83
2021/09/20 08:07:38;;;;;;;;;;;;;;;11.15;81.14;98115.85;1634604;86;20162;-83
2021/09/20 08:10:05;;;;;;;;;;;;;;;11.25;82.57;98113.88;1634445;86;20159;-81
2021/09/20 08:12:32;;;;;;;;;;;;;;;11.31;82.57;98113.30;1634595;86;20210;-83
2021/09/20 08:14:59;;;;;;;;;;;;;;;11.27;82.10;98117.66;1634406;85;21019;-83
2021/09/20 08:17:26;;;;;;;;;;;;;;;11.29;82.00;98119.56;1634594;85;20531;-83
2021/09/20 08:19:52;;;;;;;;;;;;;;;11.28;82.48;98126.09;1634469;85;20484;-83
2021/09/20 08:22:19;;;;;;;;;;;;;;;11.30;82.46;98121.19;1634575;86;20654;-83
2021/09/20 08:24:46;;;;;;;;;;;;;;;11.31;82.78;98126.87;1634440;85;20162;-80
2021/09/20 08:27:15;;;;;;;;;;;;;;;11.22;82.08;98123.13;1634612;86;21002;-82
2021/09/20 08:29:41;;;;;;;;;;;;;;;11.17;82.21;98134.00;1634166;86;20241;-83
2021/09/20 08:32:08;;;;;;;;;;;;;;;11.05;82.04;98135.70;1634330;85;20278;-83
2021/09/20 08:34:36;;;;;;;;;;;;;;;11.01;82.02;98134.63;1634277;86;20142;-82
2021/09/20 08:37:03;;;;;;;;;;;;;;;10.80;81.99;98137.19;1634660;86;20193;-83
2021/09/20 08:39:30;;;;;;;;;;;;;;;10.69;82.61;98139.95;1634293;86;21005;-80
2021/09/20 08:41:57;;;;;;;;;;;;;;;10.72;82.80;98146.16;1636711;85;20138;-80
2021/09/20 08:44:24;;;;;;;;;;;;;;;10.67;82.99;98148.87;1641143;85;20142;-81
2021/09/20 08:46:51;;;;;;;;;;;;;;;10.59;83.34;98155.41;1641560;86;20315;-80
2021/09/20 08:49:20;;;;;;;;;;;;;;;10.33;85.17;98157.37;1632303;86;20163;-80
2021/09/20 08:51:46;;;;;;;;;;;;;;;10.16;86.23;98156.30;1635762;86;20894;-83
2021/09/20 08:54:14;;;;;;;;;;;;;;;10.20;85.83;98160.09;1655634;85;20477;-83
2021/09/20 08:56:41;;;;;;;;;;;;;;;10.14;86.47;98162.53;1642823;85;20171;-81
2021/09/20 08:59:08;;;;;;;;;;;;;;;10.00;86.36;98164.17;1626592;87;20146;-81
2021/09/20 09:01:35;;;;;;;;;;;;;;;10.07;86.10;98162.00;1644153;85;20224;-83
2021/09/20 09:04:31;;;;;;;;;;;;;;;10.10;86.54;98162.28;1643287;86;20991;-82
2021/09/20 09:07:07;;;;;;;;;;;;;;;10.17;86.64;98170.14;1640025;87;20150;-80
2021/09/20 09:09:39;;;;;;;;;;;;;;;10.23;85.25;98174.47;1641262;85;20150;-80
2021/09/20 09:12:18;;;;;;;;;;;;;;;10.27;84.52;98180.17;1641885;86;20736;-82
2021/09/20 09:14:54;;;;;;;;;;;;;;;10.34;84.54;98178.80;1641317;86;20170;-80
2021/09/20 09:17:26;;;;;;;;;;;;;;;10.31;84.03;98175.81;1641805;87;20719;-83
2021/09/20 09:19:58;;;;;;;;;;;;;;;10.45;84.40;98180.39;1640663;85;20232;-83
2021/09/20 09:22:43;;;;;;;;;;;;;;;10.60;84.96;98178.73;1641722;87;20150;-82
2021/09/20 09:25:23;;;;;;;;;;;;;;;10.77;84.76;98182.45;1641505;87;20138;-83
2021/09/20 09:27:52;;;;;;;;;;;;;;;10.83;82.84;98179.99;1640120;85;20154;-83
2021/09/20 09:30:22;;;;;;;;;;;;;;;10.90;81.75;98182.67;1641428;86;21710;-80
2021/09/20 09:32:51;;;;;;;;;;;;;;;10.96;82.81;98182.13;1625427;87;20421;-82
2021/09/20 09:35:18;;;;;;;;;;;;;;;11.08;83.05;98186.66;1641186;86;20131;-83
2021/09/20 09:37:46;;;;;;;;;;;;;;;11.04;82.01;98187.52;1641640;86;20129;-80
2021/09/20 09:40:21;;;;;;;;;;;;;;;11.10;82.69;98187.19;1641532;85;20433;-80
2021/09/20 09:42:49;;;;;;;;;;;;;;;11.04;82.08;98184.80;1638511;86;20969;-83
2021/09/20 09:45:20;;;;;;;;;;;;;;;11.08;82.16;98182.59;1640851;86;20150;-83
2021/09/20 09:47:48;;;;;;;;;;;;;;;11.00;81.80;98180.46;1640364;85;20189;-80
2021/09/20 09:50:20;;;;;;;;;;;;;;;10.92;80.64;98187.81;1641177;86;20167;-80
2021/09/20 09:52:49;;;;;;;;;;;;;;;10.98;80.46;98186.17;1636691;87;20471;-80
2021/09/20 09:55:16;;;;;;;;;;;;;;;11.05;80.23;98190.48;1636715;86;21013;-81
2021/09/20 09:57:43;;;;;;;;;;;;;;;11.04;80.12;98186.16;1636741;86;20193;-80
2021/09/20 10:00:12;;;;;;;;;;;;;;;11.20;80.58;98180.37;1636628;86;20138;-81
2021/09/20 10:02:40;;;;;;;;;;;;;;;11.37;81.27;98185.98;1633198;87;20146;-83
2021/09/20 10:05:10;;;;;;;;;;;;;;;11.38;79.74;98183.53;1652855;86;20134;-81
2021/09/20 10:07:40;;;;;;;;;;;;;;;11.55;80.67;98188.03;1653534;86;21683;-80
2021/09/20 10:10:09;;;;;;;;;;;;;;;11.66;80.29;98190.12;1652452;85;20378;-83
2021/09/20 10:12:36;;;;;;;;;;;;;;;11.71;79.52;98184.67;1653181;86;20150;-83
2021/09/20 10:15:05;;;;;;;;;;;;;;;11.84;81.18;98188.12;1617784;87;20491;-83
2021/09/20 10:17:32;;;;;;;;;;;;;;;11.93;80.11;98190.48;1644236;86;20208;-80
2021/09/20 10:19:59;;;;;;;;;;;;;;;11.97;77.79;98176.62;1641503;86;21380;-80
2021/09/20 10:22:26;;;;;;;;;;;;;;;12.14;78.33;98178.91;1636943;86;20129;-81
2021/09/20 10:24:55;;;;;;;;;;;;;;;12.27;77.31;98186.94;1641473;86;20198;-81
2021/09/20 10:27:22;;;;;;;;;;;;;;;12.39;79.37;98184.11;1636276;87;20162;-83
2021/09/20 10:29:52;;;;;;;;;;;;;;;12.25;75.05;98181.79;1652913;86;20167;-83
2021/09/20 10:32:19;;;;;;;;;;;;;;;12.06;75.25;98183.61;1641567;85;21164;-81
2021/09/20 10:34:49;;;;;;;;;;;;;;;11.97;76.58;98182.05;1640985;87;20142;-80
2021/09/20 10:37:17;;;;;;;;;;;;;;;11.95;76.58;98184.77;1636989;86;20402;-81
2021/09/20 10:39:53;;;;;;;;;;;;;;;11.68;74.10;98190.65;1641219;86;20138;-83
2021/09/20 10:42:43;;;;;;;;;;;;;;;11.43;72.50;98197.86;1641246;86;20429;-81
2021/09/20 10:45:46;;;;;;;;;;;;;;;11.43;73.03;98195.14;1640847;86;22875;-83
2021/09/20 10:48:21;;;;;;;;;;;;;;;11.24;67.80;98199.61;1616762;87;20440;-81
2021/09/20 10:50:54;;;;;;;;;;;;;;;11.28;69.57;98198.78;1641722;87;20134;-81
2021/09/20 10:53:28;;;;;;;;;;;;;;;11.17;67.64;98201.26;1641372;87;21678;-82
2021/09/20 10:56:08;;;;;;;;;;;;;;;11.38;66.64;98206.59;1640993;86;20504;-83
2021/09/20 10:58:37;;;;;;;;;;;;;;;11.47;67.87;98207.08;1641463;86;21028;-81
2021/09/20 11:01:15;;;;;;;;;;;;;;;11.51;66.40;98205.95;1641559;86;20150;-81
2021/09/20 11:03:47;;;;;;;;;;;;;;;11.57;66.65;98204.30;1641373;87;20238;-82
2021/09/20 11:06:24;;;;;;;;;;;;;;;11.96;68.37;98204.03;1641300;86;20573;-81
2021/09/20 11:09:02;;;;;;;;;;;;;;;12.09;67.20;98200.67;1651211;86;20394;-83
2021/09/20 11:11:42;;;;;;;;;;;;;;;12.08;65.03;98206.66;1633741;86;21480;-81
2021/09/20 11:14:14;;;;;;;;;;;;;;;12.37;67.63;98197.70;1657732;85;20167;-83
2021/09/20 11:16:50;;;;;;;;;;;;;;;12.41;64.56;98198.76;1658062;86;20142;-83
2021/09/20 11:19:34;;;;;;;;;;;;;;;12.84;67.15;98200.20;1648944;85;20618;-82
2021/09/20 11:22:10;;;;;;;;;;;;;;;13.21;66.79;98194.05;1640636;85;20162;-83
2021/09/20 11:24:46;;;;;;;;;;;;;;;13.13;65.64;98192.75;1641144;85;21087;-82
2021/09/20 11:27:26;;;;;;;;;;;;;;;12.88;63.57;98191.16;1641409;85;20244;-83
2021/09/20 11:29:58;;;;;;;;;;;;;;;12.82;64.24;98197.78;1641148;87;20208;-83
2021/09/20 11:32:26;;;;;;;;;;;;;;;12.38;63.04;98209.63;1641150;87;21742;-83
2021/09/20 11:34:55;;;;;;;;;;;;;;;12.18;65.06;98202.23;1641132;86;20456;-83
2021/09/20 11:37:25;;;;;;;;;;;;;;;11.95;64.47;98204.58;1641419;85;20723;-81
2021/09/20 11:39:55;;;;;;;;;;;;;;;11.93;66.28;98199.99;1641273;85;20212;-82
2021/09/20 11:42:25;;;;;;;;;;;;;;;11.92;66.22;98210.59;1641025;85;20129;-81
2021/09/20 11:44:57;;;;;;;;;;;;;;;11.93;65.17;98212.21;1634496;88;20262;-82
2021/09/20 11:47:27;;;;;;;;;;;;;;;11.73;65.36;98220.48;1634609;88;20150;-80
2021/09/20 11:50:02;;;;;;;;;;;;;;;11.74;65.33;98216.67;1634408;86;20886;-81
2021/09/20 11:52:33;;;;;;;;;;;;;;;11.62;64.51;98221.62;1634383;86;20143;-83
2021/09/20 11:55:00;;;;;;;;;;;;;;;11.81;66.23;98227.52;1634414;86;20425;-83
2021/09/20 11:57:33;;;;;;;;;;;;;;;11.82;65.00;98237.27;1634583;86;20483;-82
2021/09/20 12:00:01;;;;;;;;;;;;;;;12.03;65.98;98233.84;1621948;87;20163;-80
2021/09/20 12:02:40;;;;;;;;;;;;;;;11.92;64.10;98230.95;1624466;87;20967;-82
2021/09/20 12:05:07;;;;;;;;;;;;;;;11.91;64.37;98239.39;1648560;86;20147;-81
2021/09/20 12:07:39;;;;;;;;;;;;;;;12.16;64.42;98235.67;1624926;87;20186;-82
2021/09/20 12:10:06;;;;;;;;;;;;;;;12.42;65.29;98238.42;1625111;87;20147;-82
2021/09/20 12:12:36;;;;;;;;;;;;;;;12.57;63.36;98245.08;1636499;86;20221;-82
2021/09/20 12:15:08;;;;;;;;;;;;;;;12.65;62.30;98246.36;1634385;85;20793;-80
2021/09/20 12:17:56;;;;;;;;;;;;;;;12.58;61.71;98250.77;1618679;88;20150;-82
2021/09/20 12:20:29;;;;;;;;;;;;;;;12.24;61.38;98246.73;1625645;85;20150;-80
2021/09/20 12:22:57;;;;;;;;;;;;;;;12.09;63.77;98252.28;1634678;85;20159;-80
2021/09/20 12:25:30;;;;;;;;;;;;;;;11.57;63.91;98258.58;1634384;86;20481;-80
2021/09/20 12:27:57;;;;;;;;;;;;;;;11.54;63.71;98271.36;1634665;88;21120;-79
2021/09/20 12:30:26;;;;;;;;;;;;;;;11.41;63.13;98267.08;1634310;85;20454;-80
2021/09/20 12:33:07;;;;;;;;;;;;;;;11.53;64.66;98270.25;1634749;86;20138;-80
2021/09/20 12:35:35;;;;;;;;;;;;;;;11.41;62.28;98272.50;1634378;86;20141;-80
2021/09/20 12:38:21;;;;;;;;;;;;;;;11.40;62.48;98269.52;1635093;86;20204;-81
2021/09/20 12:40:50;;;;;;;;;;;;;;;11.51;63.64;98275.16;1634790;86;21677;-81
2021/09/20 12:43:32;;;;;;;;;;;;;;;11.54;62.87;98276.78;1635634;85;20143;-80
2021/09/20 12:46:16;;;;;;;;;;;;;;;11.44;63.76;98273.28;1636726;87;20146;-82
2021/09/20 12:48:46;;;;;;;;;;;;;;;11.46;64.04;98286.86;1641364;87;20170;-81
2021/09/20 12:51:15;;;;;;;;;;;;;;;11.57;64.50;98283.55;1637089;86;20149;-81
2021/09/20 12:53:44;;;;;;;;;;;;;;;11.58;64.31;98283.26;1637148;86;21011;-83